»·PEaware :: N27JP KBFL-KCMA

N27JP :: KBFL-KCMA

FLIGHT INFORMATION

Flight Status: Arrived
Operator: Privately registered:
United States
More flights under this callsign
Pilot: Weston J. (31543)
Aircraft: BEECH AIRCRAFT BONANZA
(BE36)
More flights by this aircraft type
Origin: KBFL Meadows
United States
Destination: KCMA Camarillo
United States
More flights between these airports :: More routes between these airports
Route: LAMPE V23 GMN V299 ZUWNI BAINE
File this flight plan on PilotEdge
Remarks:
Altitude:
(Current/Filed)
9,500ft
Speed:
(Current/Filed)
140kts
Departed: 16-Oct-20 07:11 PM
Arrived: 16-Oct-20 07:57 PM
Distance/Time
Traveled:
73nm/0:46
Distance/Time
To Go:
Arrived

Flight Plot

Page will automatically refresh every two minutes.

Flight plan parsing failed; only flown route is shown


Map Options




Map Legend


Flown Route
Filed Route
Departure Airport
Arrival Airport
Navaid (VOR, NDB)
Fix

Horizontal Profiles

Position Reports

Time Latitude Longitude Heading Altitude Ground
Speed
16-Oct-20 18:41 35.428714 -119.045461 63 480ft 0kts
16-Oct-20 18:42 35.428714 -119.045461 63 480ft 0kts
16-Oct-20 18:43 35.428714 -119.045461 63 480ft 0kts
16-Oct-20 18:44 35.428714 -119.045461 63 480ft 0kts
16-Oct-20 18:45 35.428714 -119.045461 63 480ft 0kts
16-Oct-20 18:46 35.428714 -119.045461 63 480ft 0kts
16-Oct-20 18:47 35.428714 -119.045461 63 480ft 0kts
16-Oct-20 18:48 35.428714 -119.045461 63 480ft 0kts
16-Oct-20 18:49 35.428714 -119.045461 63 480ft 0kts
16-Oct-20 18:50 35.428714 -119.045461 63 480ft 0kts
16-Oct-20 18:51 35.428714 -119.045461 63 480ft 0kts
16-Oct-20 18:52 35.428714 -119.045461 63 480ft 0kts
16-Oct-20 18:53 35.428714 -119.045461 63 480ft 0kts
16-Oct-20 18:54 35.428714 -119.045461 63 480ft 0kts
16-Oct-20 18:55 35.428714 -119.045461 63 480ft 0kts
16-Oct-20 18:56 35.428714 -119.045461 63 480ft 0kts
16-Oct-20 18:57 35.428714 -119.045461 63 480ft 0kts
16-Oct-20 18:58 35.428714 -119.045461 63 480ft 0kts
16-Oct-20 18:58 35.428714 -119.045461 63 480ft 0kts
16-Oct-20 18:59 35.428714 -119.045461 63 480ft 0kts
16-Oct-20 19:00 35.428714 -119.045461 63 480ft 0kts
16-Oct-20 19:01 35.428714 -119.045461 63 480ft 0kts
16-Oct-20 19:02 35.428714 -119.045461 63 480ft 0kts
16-Oct-20 19:03 35.428714 -119.045461 63 480ft 0kts
16-Oct-20 19:04 35.428714 -119.045461 63 480ft 0kts
16-Oct-20 19:05 35.428375 -119.045331 212 479ft 8kts
16-Oct-20 19:06 35.426500 -119.044495 175 472ft 10kts
16-Oct-20 19:07 35.425719 -119.044832 232 471ft 0kts
16-Oct-20 19:08 35.425719 -119.044832 232 471ft 0kts
16-Oct-20 19:09 35.425563 -119.045196 259 472ft 8kts
16-Oct-20 19:10 35.434818 -119.057211 318 652ft 99kts
16-Oct-20 19:11 35.447627 -119.082596 224 1480ft 91kts
16-Oct-20 19:12 35.430616 -119.106436 189 2558ft 88kts
16-Oct-20 19:13 35.408564 -119.089476 143 3457ft 104kts
16-Oct-20 19:14 35.383656 -119.068295 143 4367ft 110kts
16-Oct-20 19:15 35.363137 -119.041562 121 5266ft 110kts
16-Oct-20 19:16 35.335003 -119.026428 163 6082ft 112kts
16-Oct-20 19:17 35.304538 -119.016974 164 6789ft 114kts
16-Oct-20 19:18 35.277674 -119.008666 164 7269ft 115kts
16-Oct-20 19:19 35.246457 -118.998894 164 7786ft 116kts
16-Oct-20 19:20 35.214791 -118.988996 165 8265ft 117kts
16-Oct-20 19:21 35.182862 -118.979038 165 8702ft 119kts
16-Oct-20 19:22 35.150555 -118.968939 165 9112ft 120kts
16-Oct-20 19:23 35.118330 -118.958887 165 9491ft 123kts
16-Oct-20 19:24 35.082366 -118.947712 164 9505ft 139kts
16-Oct-20 19:25 35.044458 -118.935926 164 9509ft 141kts
16-Oct-20 19:26 35.006209 -118.924011 164 9512ft 141kts
16-Oct-20 19:27 34.968149 -118.912194 164 9513ft 141kts
16-Oct-20 19:28 34.929901 -118.900327 164 9513ft 141kts
16-Oct-20 19:29 34.891843 -118.888530 163 9511ft 141kts
16-Oct-20 19:30 34.853732 -118.876736 163 9516ft 141kts
16-Oct-20 19:31 34.815153 -118.864797 163 9511ft 143kts
16-Oct-20 19:32 34.775312 -118.862425 179 9510ft 144kts
16-Oct-20 19:33 34.734859 -118.864444 178 9500ft 144kts
16-Oct-20 19:34 34.694666 -118.866252 178 9515ft 145kts
16-Oct-20 19:35 34.653518 -118.868089 178 9497ft 147kts
16-Oct-20 19:36 34.612428 -118.869924 178 9477ft 146kts
16-Oct-20 19:37 34.572217 -118.871705 178 9485ft 144kts
16-Oct-20 19:38 34.532012 -118.873518 177 9479ft 143kts
16-Oct-20 19:39 34.493568 -118.875205 177 9460ft 140kts
16-Oct-20 19:40 34.453892 -118.876982 177 9467ft 145kts
16-Oct-20 19:41 34.413733 -118.878260 175 9469ft 146kts
16-Oct-20 19:42 34.373173 -118.877547 174 9192ft 146kts
16-Oct-20 19:43 34.332735 -118.876891 173 7974ft 145kts
16-Oct-20 19:44 34.292757 -118.876254 172 6288ft 142kts
16-Oct-20 19:45 34.253412 -118.875625 176 4655ft 140kts
16-Oct-20 19:46 34.234814 -118.903750 266 3455ft 97kts
16-Oct-20 19:47 34.232160 -118.928446 275 3294ft 67kts
16-Oct-20 19:48 34.226964 -118.959529 263 2968ft 98kts
16-Oct-20 19:49 34.228114 -118.988777 354 2662ft 90kts
16-Oct-20 19:50 34.252496 -118.987757 54 2435ft 87kts
16-Oct-20 19:51 34.241728 -118.970215 208 2213ft 102kts
16-Oct-20 19:52 34.223790 -118.993810 242 1519ft 83kts
16-Oct-20 19:53 34.215527 -119.018418 266 972ft 76kts
16-Oct-20 19:54 34.212918 -119.048741 277 894ft 81kts
16-Oct-20 19:55 34.213220 -119.073517 277 302ft 72kts
16-Oct-20 19:56 34.213656 -119.092743 272 74ft 32kts
16-Oct-20 19:57 34.212246 -119.095693 170 72ft 12kts
16-Oct-20 19:58 34.210756 -119.094686 180 71ft 0kts
16-Oct-20 19:59 34.210756 -119.094686 180 71ft 0kts

Navigation Log

Ident Type
Flight plan parsing failed, navigation log unavailable